createdAt,value
2022-11-22T00:08:58.145Z,93.75
2022-11-22T00:18:58.273Z,91.85
2022-11-22T00:28:58.430Z,92.16
2022-11-22T00:38:58.694Z,91.09
2022-11-22T00:48:58.882Z,91.50
2022-11-22T00:58:59.110Z,90.99
2022-11-22T01:08:59.285Z,89.40
2022-11-22T01:18:59.524Z,89.56
2022-11-22T01:28:59.684Z,89.77
2022-11-22T01:38:59.939Z,90.43
2022-11-22T01:49:00.130Z,90.43
2022-11-22T01:59:00.282Z,94.32
2022-11-22T02:09:00.465Z,94.95
2022-11-22T02:19:00.708Z,95.46
2022-11-22T02:29:00.887Z,97.01
2022-11-22T02:39:01.145Z,99.22
2022-11-22T02:49:01.331Z,98.19
2022-11-22T02:59:01.583Z,97.36
2022-11-22T03:09:01.767Z,96.53
2022-11-22T03:19:02.019Z,96.12
2022-11-22T03:29:02.501Z,95.09
2022-11-22T03:39:02.405Z,94.72
2022-11-22T03:49:02.576Z,94.82
2022-11-22T03:59:03.057Z,94.57
2022-11-22T04:09:03.013Z,94.37
2022-11-22T04:19:03.089Z,95.09
2022-11-22T04:29:09.628Z,94.68
2022-11-22T04:39:04.379Z,95.45
2022-11-22T04:49:03.572Z,95.45
2022-11-22T04:59:03.705Z,95.28
2022-11-22T05:09:03.907Z,96.26
2022-11-22T05:19:04.184Z,97.54
2022-11-22T05:29:04.257Z,98.93
2022-11-22T05:39:04.525Z,99.44
2022-11-22T05:49:04.720Z,99.65
2022-11-22T05:59:05.169Z,98.47
2022-11-22T06:09:05.019Z,96.26
2022-11-22T06:19:05.271Z,95.57
2022-11-22T06:29:05.466Z,93.68
2022-11-22T06:39:05.732Z,93.47
2022-11-22T06:49:05.806Z,94.96
2022-11-22T06:59:06.052Z,96.97
2022-11-22T07:09:06.205Z,95.99
2022-11-22T07:19:06.487Z,94.09
2022-11-22T07:29:06.686Z,92.80
2022-11-22T07:39:06.909Z,91.83
2022-11-22T07:49:07.284Z,91.07
2022-11-22T07:59:07.388Z,91.17
2022-11-22T08:09:07.531Z,90.10
2022-11-22T08:19:07.741Z,87.85
2022-11-22T08:29:13.694Z,87.85
2022-11-22T08:39:09.399Z,88.12
2022-11-22T08:49:08.343Z,88.74
2022-11-22T08:59:08.495Z,88.64
2022-11-22T09:09:35.788Z,87.36
2022-11-22T09:19:09.896Z,87.57
2022-11-22T09:29:08.827Z,86.64
2022-11-22T09:39:09.175Z,87.01
2022-11-22T09:49:09.221Z,86.19
2022-11-22T09:59:09.770Z,86.70
2022-11-22T10:09:09.611Z,84.30
2022-11-22T10:19:09.939Z,84.30
